sensor_id;sensor_type;location;lat;lon;timestamp;pressure;altitude;pressure_sealevel;temperature;humidity
42105;BME280;68365;51.472;5.712;2023-03-22T00:01:17;100807.16;;;15.65;100.00
42105;BME280;68365;51.472;5.712;2023-03-22T00:03:44;100796.88;;;15.63;100.00
42105;BME280;68365;51.472;5.712;2023-03-22T00:06:11;100790.97;;;15.55;100.00
42105;BME280;68365;51.472;5.712;2023-03-22T00:08:38;100794.25;;;15.63;100.00
42105;BME280;68365;51.472;5.712;2023-03-22T00:11:05;100792.63;;;15.62;100.00
42105;BME280;68365;51.472;5.712;2023-03-22T00:13:33;100796.28;;;15.68;100.00
42105;BME280;68365;51.472;5.712;2023-03-22T00:16:00;100785.22;;;15.66;100.00
42105;BME280;68365;51.472;5.712;2023-03-22T00:18:28;100798.06;;;15.61;100.00
42105;BME280;68365;51.472;5.712;2023-03-22T00:20:57;100796.44;;;15.60;100.00
42105;BME280;68365;51.472;5.712;2023-03-22T00:23:25;100789.22;;;15.62;100.00
42105;BME280;68365;51.472;5.712;2023-03-22T00:25:51;100788.78;;;15.58;100.00
42105;BME280;68365;51.472;5.712;2023-03-22T00:28:18;100783.78;;;15.63;100.00
42105;BME280;68365;51.472;5.712;2023-03-22T00:30:59;100778.38;;;15.65;100.00
42105;BME280;68365;51.472;5.712;2023-03-22T00:33:25;100766.06;;;15.59;100.00
42105;BME280;68365;51.472;5.712;2023-03-22T00:35:59;100773.13;;;15.65;100.00
42105;BME280;68365;51.472;5.712;2023-03-22T00:38:26;100758.81;;;15.61;100.00
42105;BME280;68365;51.472;5.712;2023-03-22T00:41:27;100764.72;;;15.69;100.00
42105;BME280;68365;51.472;5.712;2023-03-22T00:43:53;100762.84;;;15.63;100.00
42105;BME280;68365;51.472;5.712;2023-03-22T00:46:20;100757.44;;;15.65;100.00
42105;BME280;68365;51.472;5.712;2023-03-22T00:48:47;100747.75;;;15.59;100.00
42105;BME280;68365;51.472;5.712;2023-03-22T00:51:14;100737.63;;;15.56;100.00
42105;BME280;68365;51.472;5.712;2023-03-22T00:53:41;100743.06;;;15.54;100.00
42105;BME280;68365;51.472;5.712;2023-03-22T00:56:07;100733.56;;;15.46;100.00
42105;BME280;68365;51.472;5.712;2023-03-22T00:58:34;100736.19;;;15.46;100.00
42105;BME280;68365;51.472;5.712;2023-03-22T01:01:00;100727.56;;;15.53;100.00
42105;BME280;68365;51.472;5.712;2023-03-22T01:03:26;100733.59;;;15.53;100.00
42105;BME280;68365;51.472;5.712;2023-03-22T01:05:52;100726.75;;;15.52;100.00
42105;BME280;68365;51.472;5.712;2023-03-22T01:08:23;100727.34;;;15.54;100.00
42105;BME280;68365;51.472;5.712;2023-03-22T01:10:49;100714.09;;;15.56;100.00
42105;BME280;68365;51.472;5.712;2023-03-22T01:13:15;100714.09;;;15.56;100.00
42105;BME280;68365;51.472;5.712;2023-03-22T01:15:41;100713.47;;;15.54;100.00
42105;BME280;68365;51.472;5.712;2023-03-22T01:18:08;100708.03;;;15.48;100.00
42105;BME280;68365;51.472;5.712;2023-03-22T01:20:34;100708.88;;;15.56;100.00
42105;BME280;68365;51.472;5.712;2023-03-22T01:23:00;100710.69;;;15.55;100.00
42105;BME280;68365;51.472;5.712;2023-03-22T01:25:26;100703.78;;;15.47;100.00
42105;BME280;68365;51.472;5.712;2023-03-22T01:27:52;100708.25;;;15.54;100.00
42105;BME280;68365;51.472;5.712;2023-03-22T01:30:18;100692.94;;;15.51;100.00
42105;BME280;68365;51.472;5.712;2023-03-22T01:32:44;100683.03;;;15.46;100.00
42105;BME280;68365;51.472;5.712;2023-03-22T01:35:10;100679.28;;;15.55;100.00
42105;BME280;68365;51.472;5.712;2023-03-22T01:37:36;100676.63;;;15.48;100.00
42105;BME280;68365;51.472;5.712;2023-03-22T01:40:02;100666.34;;;15.47;100.00
42105;BME280;68365;51.472;5.712;2023-03-22T01:42:28;100651.03;;;15.44;100.00
42105;BME280;68365;51.472;5.712;2023-03-22T01:50:09;100640.66;;;15.57;100.00
42105;BME280;68365;51.472;5.712;2023-03-22T01:52:36;100636.19;;;15.51;100.00
42105;BME280;68365;51.472;5.712;2023-03-22T01:55:04;100629.31;;;15.43;100.00
42105;BME280;68365;51.472;5.712;2023-03-22T01:57:31;100637.78;;;15.45;100.00
42105;BME280;68365;51.472;5.712;2023-03-22T02:00:05;100638.00;;;15.51;100.00
42105;BME280;68365;51.472;5.712;2023-03-22T02:02:37;100636.19;;;15.51;100.00
42105;BME280;68365;51.472;5.712;2023-03-22T02:05:03;100627.13;;;15.47;100.00
42105;BME280;68365;51.472;5.712;2023-03-22T02:07:30;100629.94;;;15.45;100.00
42105;BME280;68365;51.472;5.712;2023-03-22T02:09:57;100621.66;;;15.42;100.00
42105;BME280;68365;51.472;5.712;2023-03-22T02:15:51;100617.66;;;15.46;100.00
42105;BME280;68365;51.472;5.712;2023-03-22T02:24:39;100598.72;;;15.44;100.00
42105;BME280;68365;51.472;5.712;2023-03-22T02:31:20;100603.75;;;15.45;100.00
42105;BME280;68365;51.472;5.712;2023-03-22T02:40:23;100595.13;;;15.45;100.00
42105;BME280;68365;51.472;5.712;2023-03-22T02:46:10;100588.25;;;15.44;100.00
42105;BME280;68365;51.472;5.712;2023-03-22T02:48:43;100579.44;;;15.45;100.00
42105;BME280;68365;51.472;5.712;2023-03-22T02:51:24;100586.47;;;15.44;100.00
42105;BME280;68365;51.472;5.712;2023-03-22T02:54:04;100583.25;;;15.42;100.00
42105;BME280;68365;51.472;5.712;2023-03-22T02:56:43;100586.06;;;15.41;100.00
42105;BME280;68365;51.472;5.712;2023-03-22T02:59:13;100584.22;;;15.35;100.00
42105;BME280;68365;51.472;5.712;2023-03-22T03:01:56;100580.03;;;15.47;100.00
42105;BME280;68365;51.472;5.712;2023-03-22T03:04:33;100590.47;;;15.40;100.00
42105;BME280;68365;51.472;5.712;2023-03-22T03:07:08;100581.00;;;15.39;100.00
42105;BME280;68365;51.472;5.712;2023-03-22T03:09:36;100568.53;;;15.41;100.00
42105;BME280;68365;51.472;5.712;2023-03-22T03:12:12;100581.09;;;15.59;100.00
42105;BME280;68365;51.472;5.712;2023-03-22T03:14:39;100575.78;;;15.46;100.00
42105;BME280;68365;51.472;5.712;2023-03-22T03:28:40;100567.75;;;15.47;100.00
42105;BME280;68365;51.472;5.712;2023-03-22T03:34:15;100564.09;;;15.35;100.00
42105;BME280;68365;51.472;5.712;2023-03-22T03:36:52;100566.50;;;15.37;100.00
42105;BME280;68365;51.472;5.712;2023-03-22T03:39:20;100551.84;;;15.42;100.00
42105;BME280;68365;51.472;5.712;2023-03-22T03:41:51;100555.03;;;15.38;100.00
42105;BME280;68365;51.472;5.712;2023-03-22T03:44:18;100556.44;;;15.34;100.00
42105;BME280;68365;51.472;5.712;2023-03-22T03:46:45;100556.25;;;15.35;100.00
42105;BME280;68365;51.472;5.712;2023-03-22T03:49:12;100557.25;;;15.34;100.00
42105;BME280;68365;51.472;5.712;2023-03-22T03:51:52;100554.81;;;15.33;100.00
42105;BME280;68365;51.472;5.712;2023-03-22T03:54:19;100548.19;;;15.30;100.00
42105;BME280;68365;51.472;5.712;2023-03-22T03:56:45;100548.78;;;15.32;100.00
42105;BME280;68365;51.472;5.712;2023-03-22T03:59:14;100550.63;;;15.38;100.00
42105;BME280;68365;51.472;5.712;2023-03-22T04:01:42;100549.78;;;15.31;100.00
42105;BME280;68365;51.472;5.712;2023-03-22T04:04:17;100556.66;;;15.32;100.00
42105;BME280;68365;51.472;5.712;2023-03-22T04:06:43;100562.88;;;15.38;100.00
42105;BME280;68365;51.472;5.712;2023-03-22T04:09:09;100557.03;;;15.29;100.00
42105;BME280;68365;51.472;5.712;2023-03-22T04:11:35;100558.44;;;15.32;100.00
42105;BME280;68365;51.472;5.712;2023-03-22T04:14:02;100561.66;;;15.34;100.00
42105;BME280;68365;51.472;5.712;2023-03-22T04:16:27;100559.63;;;15.29;100.00
42105;BME280;68365;51.472;5.712;2023-03-22T04:18:53;100555.19;;;15.29;100.00
42105;BME280;68365;51.472;5.712;2023-03-22T04:21:19;100556.03;;;15.30;100.00
42105;BME280;68365;51.472;5.712;2023-03-22T04:23:46;100553.41;;;15.30;100.00
42105;BME280;68365;51.472;5.712;2023-03-22T04:26:12;100543.75;;;15.31;100.00
42105;BME280;68365;51.472;5.712;2023-03-22T04:28:38;100554.03;;;15.32;100.00
42105;BME280;68365;51.472;5.712;2023-03-22T04:31:03;100544.19;;;15.34;100.00
42105;BME280;68365;51.472;5.712;2023-03-22T04:33:29;100543.34;;;15.34;100.00
42105;BME280;68365;51.472;5.712;2023-03-22T04:35:57;100549.78;;;15.31;100.00
42105;BME280;68365;51.472;5.712;2023-03-22T04:38:24;100545.34;;;15.32;100.00
42105;BME280;68365;51.472;5.712;2023-03-22T04:40:50;100523.63;;;15.24;100.00
42105;BME280;68365;51.472;5.712;2023-03-22T04:43:15;100524.00;;;15.21;100.00
42105;BME280;68365;51.472;5.712;2023-03-22T04:45:43;100534.25;;;15.23;100.00
42105;BME280;68365;51.472;5.712;2023-03-22T04:48:10;100538.72;;;15.29;100.00
42105;BME280;68365;51.472;5.712;2023-03-22T04:50:38;100537.31;;;15.26;100.00
42105;BME280;68365;51.472;5.712;2023-03-22T04:53:05;100533.47;;;15.29;100.00
42105;BME280;68365;51.472;5.712;2023-03-22T04:55:31;100531.28;;;15.33;100.00
42105;BME280;68365;51.472;5.712;2023-03-22T04:57:59;100539.13;;;15.26;100.00
42105;BME280;68365;51.472;5.712;2023-03-22T05:00:24;100521.97;;;15.23;100.00
42105;BME280;68365;51.472;5.712;2023-03-22T05:02:50;100527.63;;;15.27;100.00
42105;BME280;68365;51.472;5.712;2023-03-22T05:05:16;100528.44;;;15.27;100.00
42105;BME280;68365;51.472;5.712;2023-03-22T05:07:42;100529.66;;;15.32;100.00
42105;BME280;68365;51.472;5.712;2023-03-22T05:10:09;100533.47;;;15.29;100.00
42105;BME280;68365;51.472;5.712;2023-03-22T05:12:34;100528.25;;;15.29;100.00
42105;BME280;68365;51.472;5.712;2023-03-22T05:15:00;100532.25;;;15.25;100.00
42105;BME280;68365;51.472;5.712;2023-03-22T05:17:28;100538.28;;;15.25;100.00
42105;BME280;68365;51.472;5.712;2023-03-22T05:19:54;100522.81;;;15.24;100.00
42105;BME280;68365;51.472;5.712;2023-03-22T05:22:20;100532.06;;;15.26;100.00
42105;BME280;68365;51.472;5.712;2023-03-22T05:24:47;100526.81;;;15.20;100.00
42105;BME280;68365;51.472;5.712;2023-03-22T05:27:12;100536.09;;;15.29;100.00
42105;BME280;68365;51.472;5.712;2023-03-22T05:29:39;100532.44;;;15.23;100.00
42105;BME280;68365;51.472;5.712;2023-03-22T05:32:10;100526.59;;;15.21;100.00
42105;BME280;68365;51.472;5.712;2023-03-22T05:34:36;100520.56;;;15.21;100.00
42105;BME280;68365;51.472;5.712;2023-03-22T05:37:02;100522.81;;;15.24;100.00
42105;BME280;68365;51.472;5.712;2023-03-22T05:39:28;100529.22;;;15.21;100.00
42105;BME280;68365;51.472;5.712;2023-03-22T05:41:54;100516.75;;;15.23;100.00
42105;BME280;68365;51.472;5.712;2023-03-22T05:44:20;100518.16;;;15.19;100.00
42105;BME280;68365;51.472;5.712;2023-03-22T05:46:46;100529.03;;;15.23;100.00
42105;BME280;68365;51.472;5.712;2023-03-22T05:49:11;100525.00;;;15.20;100.00
42105;BME280;68365;51.472;5.712;2023-03-22T05:51:37;100530.84;;;15.22;100.00
42105;BME280;68365;51.472;5.712;2023-03-22T05:54:07;100518.16;;;15.19;100.00
42105;BME280;68365;51.472;5.712;2023-03-22T05:56:34;100528.41;;;15.21;100.00
42105;BME280;68365;51.472;5.712;2023-03-22T05:59:01;100517.34;;;15.19;100.00
42105;BME280;68365;51.472;5.712;2023-03-22T06:01:27;100519.78;;;15.20;100.00
42105;BME280;68365;51.472;5.712;2023-03-22T06:03:53;100512.91;;;15.19;100.00
42105;BME280;68365;51.472;5.712;2023-03-22T06:06:19;100513.13;;;15.18;100.00
42105;BME280;68365;51.472;5.712;2023-03-22T06:08:45;100528.22;;;15.22;100.00
42105;BME280;68365;51.472;5.712;2023-03-22T06:11:11;100526.00;;;15.19;100.00
42105;BME280;68365;51.472;5.712;2023-03-22T06:13:37;100520.75;;;15.19;100.00
42105;BME280;68365;51.472;5.712;2023-03-22T06:16:04;100524.38;;;15.18;100.00
42105;BME280;68365;51.472;5.712;2023-03-22T06:18:30;100519.97;;;15.19;100.00
42105;BME280;68365;51.472;5.712;2023-03-22T06:20:56;100513.69;;;15.13;100.00
42105;BME280;68365;51.472;5.712;2023-03-22T06:23:22;100523.38;;;15.19;100.00
42105;BME280;68365;51.472;5.712;2023-03-22T06:25:48;100515.50;;;15.13;100.00
42105;BME280;68365;51.472;5.712;2023-03-22T06:28:14;100514.13;;;15.17;100.00
42105;BME280;68365;51.472;5.712;2023-03-22T06:30:39;100516.56;;;15.25;100.00
42105;BME280;68365;51.472;5.712;2023-03-22T06:33:05;100517.97;;;15.21;100.00
42105;BME280;68365;51.472;5.712;2023-03-22T06:35:32;100509.69;;;15.17;100.00
42105;BME280;68365;51.472;5.712;2023-03-22T06:37:58;100519.78;;;15.20;100.00
42105;BME280;68365;51.472;5.712;2023-03-22T06:40:25;100521.38;;;15.21;100.00
42105;BME280;68365;51.472;5.712;2023-03-22T06:42:52;100516.34;;;15.20;100.00
42105;BME280;68365;51.472;5.712;2023-03-22T06:45:20;100518.16;;;15.19;100.00
42105;BME280;68365;51.472;5.712;2023-03-22T06:47:46;100510.13;;;15.21;100.00
42105;BME280;68365;51.472;5.712;2023-03-22T06:50:12;100517.34;;;15.19;100.00
42105;BME280;68365;51.472;5.712;2023-03-22T06:52:39;100525.81;;;15.21;100.00
42105;BME280;68365;51.472;5.712;2023-03-22T06:55:06;100520.56;;;15.21;100.00
42105;BME280;68365;51.472;5.712;2023-03-22T06:57:32;100525.00;;;15.20;100.00
42105;BME280;68365;51.472;5.712;2023-03-22T06:59:57;100524.00;;;15.21;100.00
42105;BME280;68365;51.472;5.712;2023-03-22T07:02:23;100522.38;;;15.20;100.00
42105;BME280;68365;51.472;5.712;2023-03-22T07:04:49;100518.56;;;15.16;100.00
42105;BME280;68365;51.472;5.712;2023-03-22T07:07:15;100527.63;;;15.20;100.00
42105;BME280;68365;51.472;5.712;2023-03-22T07:09:41;100527.00;;;15.18;100.00
42105;BME280;68365;51.472;5.712;2023-03-22T07:12:07;100530.84;;;15.22;100.00
42105;BME280;68365;51.472;5.712;2023-03-22T07:14:33;100527.22;;;15.23;100.00
42105;BME280;68365;51.472;5.712;2023-03-22T07:16:58;100527.03;;;15.25;100.00
42105;BME280;68365;51.472;5.712;2023-03-22T07:19:24;100528.03;;;15.24;100.00
42105;BME280;68365;51.472;5.712;2023-03-22T07:21:50;100513.34;;;15.23;100.00
42105;BME280;68365;51.472;5.712;2023-03-22T07:24:16;100511.75;;;15.22;100.00
42105;BME280;68365;51.472;5.712;2023-03-22T07:26:42;100521.00;;;15.24;100.00
42105;BME280;68365;51.472;5.712;2023-03-22T07:29:08;100521.59;;;15.26;100.00
42105;BME280;68365;51.472;5.712;2023-03-22T07:31:34;100526.59;;;15.21;100.00
42105;BME280;68365;51.472;5.712;2023-03-22T07:34:02;100519.97;;;15.25;100.00
42105;BME280;68365;51.472;5.712;2023-03-22T07:36:29;100516.13;;;15.21;100.00
42105;BME280;68365;51.472;5.712;2023-03-22T07:38:54;100518.56;;;15.23;100.00
42105;BME280;68365;51.472;5.712;2023-03-22T07:41:20;100519.00;;;15.26;100.00
42105;BME280;68365;51.472;5.712;2023-03-22T07:43:49;100515.97;;;15.23;100.00
42105;BME280;68365;51.472;5.712;2023-03-22T07:46:15;100521.41;;;15.28;100.00
42105;BME280;68365;51.472;5.712;2023-03-22T07:48:41;100527.81;;;15.25;100.00
42105;BME280;68365;51.472;5.712;2023-03-22T07:51:07;100515.59;;;15.26;100.00
42105;BME280;68365;51.472;5.712;2023-03-22T07:53:33;100529.66;;;15.25;100.00
42105;BME280;68365;51.472;5.712;2023-03-22T07:55:59;100543.50;;;15.25;100.00
42105;BME280;68365;51.472;5.712;2023-03-22T07:58:25;100526.59;;;15.21;100.00
42105;BME280;68365;51.472;5.712;2023-03-22T08:00:50;100524.81;;;15.22;100.00
42105;BME280;68365;51.472;5.712;2023-03-22T08:03:16;100515.97;;;15.23;100.00
42105;BME280;68365;51.472;5.712;2023-03-22T08:05:42;100528.66;;;15.26;100.00
42105;BME280;68365;51.472;5.712;2023-03-22T08:08:09;100525.44;;;15.31;100.00
42105;BME280;68365;51.472;5.712;2023-03-22T08:10:35;100520.22;;;15.31;100.00
42105;BME280;68365;51.472;5.712;2023-03-22T08:13:01;100513.97;;;15.32;100.00
42105;BME280;68365;51.472;5.712;2023-03-22T08:15:27;100512.97;;;15.33;100.00
42105;BME280;68365;51.472;5.712;2023-03-22T08:17:53;100512.56;;;15.29;100.00
42105;BME280;68365;51.472;5.712;2023-03-22T08:20:24;100525.88;;;15.34;100.00
42105;BME280;68365;51.472;5.712;2023-03-22T08:22:52;100525.88;;;15.34;100.00
42105;BME280;68365;51.472;5.712;2023-03-22T08:25:19;100515.00;;;15.31;100.00
42105;BME280;68365;51.472;5.712;2023-03-22T08:27:45;100528.28;;;15.36;100.00
42105;BME280;68365;51.472;5.712;2023-03-22T08:30:12;100538.72;;;15.36;100.00
42105;BME280;68365;51.472;5.712;2023-03-22T08:32:38;100534.53;;;15.35;100.00
42105;BME280;68365;51.472;5.712;2023-03-22T08:35:05;100545.78;;;15.35;100.00
42105;BME280;68365;51.472;5.712;2023-03-22T08:37:31;100543.41;;;15.40;100.00
42105;BME280;68365;51.472;5.712;2023-03-22T08:39:57;100550.03;;;15.43;100.00
42105;BME280;68365;51.472;5.712;2023-03-22T08:42:23;100536.53;;;15.39;100.00
42105;BME280;68365;51.472;5.712;2023-03-22T08:44:48;100535.38;;;15.48;100.00
42105;BME280;68365;51.472;5.712;2023-03-22T08:47:16;100521.47;;;15.48;100.00
42105;BME280;68365;51.472;5.712;2023-03-22T08:49:42;100518.28;;;15.53;100.00
42105;BME280;68365;51.472;5.712;2023-03-22T08:52:08;100517.88;;;15.56;100.00
42105;BME280;68365;51.472;5.712;2023-03-22T08:54:34;100515.88;;;15.51;100.00
42105;BME280;68365;51.472;5.712;2023-03-22T08:57:00;100529.56;;;15.60;100.00
42105;BME280;68365;51.472;5.712;2023-03-22T08:59:27;100511.84;;;15.55;100.00
42105;BME280;68365;51.472;5.712;2023-03-22T09:01:53;100523.97;;;15.63;100.00
42105;BME280;68365;51.472;5.712;2023-03-22T09:04:19;100513.50;;;15.63;100.00
42105;BME280;68365;51.472;5.712;2023-03-22T09:06:45;100515.28;;;15.62;100.00
42105;BME280;68365;51.472;5.712;2023-03-22T09:09:11;100508.03;;;15.64;100.00
42105;BME280;68365;51.472;5.712;2023-03-22T09:11:37;100521.94;;;15.65;100.00
42105;BME280;68365;51.472;5.712;2023-03-22T09:14:05;100521.53;;;15.68;100.00
42105;BME280;68365;51.472;5.712;2023-03-22T09:16:31;100524.16;;;15.68;100.00
42105;BME280;68365;51.472;5.712;2023-03-22T09:18:57;100517.09;;;15.68;100.00
42105;BME280;68365;51.472;5.712;2023-03-22T09:21:23;100505.41;;;15.64;100.00
42105;BME280;68365;51.472;5.712;2023-03-22T09:23:50;100508.66;;;15.66;100.00
42105;BME280;68365;51.472;5.712;2023-03-22T09:26:16;100491.53;;;15.64;100.00
42105;BME280;68365;51.472;5.712;2023-03-22T09:28:42;100490.13;;;15.68;100.00
42105;BME280;68365;51.472;5.712;2023-03-22T09:31:10;100497.00;;;15.69;100.00
42105;BME280;68365;51.472;5.712;2023-03-22T09:33:37;100496.78;;;15.70;100.00
42105;BME280;68365;51.472;5.712;2023-03-22T09:36:04;100496.38;;;15.67;100.00
42105;BME280;68365;51.472;5.712;2023-03-22T09:38:30;100507.25;;;15.70;100.00
42105;BME280;68365;51.472;5.712;2023-03-22T09:41:03;100489.34;;;15.67;100.00
42105;BME280;68365;51.472;5.712;2023-03-22T09:43:56;100493.38;;;15.70;100.00
42105;BME280;68365;51.472;5.712;2023-03-22T09:46:39;100498.41;;;15.72;100.00
42105;BME280;68365;51.472;5.712;2023-03-22T09:49:13;100487.13;;;15.71;100.00
42105;BME280;68365;51.472;5.712;2023-03-22T09:51:47;100493.81;;;15.74;100.00
42105;BME280;68365;51.472;5.712;2023-03-22T09:54:37;100488.56;;;15.74;100.00
42105;BME280;68365;51.472;5.712;2023-03-22T09:57:31;100490.75;;;15.70;100.00
42105;BME280;68365;51.472;5.712;2023-03-22T10:03:43;100495.63;;;15.73;100.00
42105;BME280;68365;51.472;5.712;2023-03-22T10:06:20;100505.69;;;15.76;100.00
42105;BME280;68365;51.472;5.712;2023-03-22T10:09:24;100498.63;;;15.77;100.00
42105;BME280;68365;51.472;5.712;2023-03-22T10:12:27;100497.03;;;15.76;100.00
42105;BME280;68365;51.472;5.712;2023-03-22T10:15:34;100494.81;;;15.73;100.00
42105;BME280;68365;51.472;5.712;2023-03-22T10:18:01;100486.16;;;15.72;100.00
42105;BME280;68365;51.472;5.712;2023-03-22T10:23:41;100488.13;;;15.70;100.00
42105;BME280;68365;51.472;5.712;2023-03-22T10:26:22;100488.13;;;15.70;100.00
42105;BME280;68365;51.472;5.712;2023-03-22T10:28:59;100480.88;;;15.65;100.00
42105;BME280;68365;51.472;5.712;2023-03-22T10:31:29;100482.09;;;15.63;100.00
42105;BME280;68365;51.472;5.712;2023-03-22T10:34:01;100482.28;;;15.61;100.00
42105;BME280;68365;51.472;5.712;2023-03-22T10:36:32;100477.44;;;15.58;100.00
42105;BME280;68365;51.472;5.712;2023-03-22T10:39:22;100493.34;;;15.63;100.00
42105;BME280;68365;51.472;5.712;2023-03-22T10:41:55;100481.69;;;15.59;100.00
42105;BME280;68365;51.472;5.712;2023-03-22T10:44:25;100492.13;;;15.59;100.00
42105;BME280;68365;51.472;5.712;2023-03-22T10:46:54;100498.97;;;15.60;100.00
42105;BME280;68365;51.472;5.712;2023-03-22T10:49:32;100492.13;;;15.59;100.00
42105;BME280;68365;51.472;5.712;2023-03-22T10:52:26;100494.94;;;15.58;100.00
42105;BME280;68365;51.472;5.712;2023-03-22T10:54:58;100495.75;;;15.58;100.00
42105;BME280;68365;51.472;5.712;2023-03-22T10:57:24;100491.53;;;15.57;100.00
42105;BME280;68365;51.472;5.712;2023-03-22T10:59:56;100480.66;;;15.54;100.00
42105;BME280;68365;51.472;5.712;2023-03-22T11:02:29;100496.56;;;15.59;100.00
42105;BME280;68365;51.472;5.712;2023-03-22T11:05:03;100503.81;;;15.63;100.00
42105;BME280;68365;51.472;5.712;2023-03-22T11:07:34;100507.66;;;15.61;100.00
42105;BME280;68365;51.472;5.712;2023-03-22T11:10:30;100499.38;;;15.57;100.00
42105;BME280;68365;51.472;5.712;2023-03-22T11:15:38;100497.19;;;15.61;100.00
42105;BME280;68365;51.472;5.712;2023-03-22T11:18:11;100497.78;;;15.63;100.00
42105;BME280;68365;51.472;5.712;2023-03-22T11:20:41;100496.34;;;15.60;100.00
42105;BME280;68365;51.472;5.712;2023-03-22T11:23:14;100491.72;;;15.56;100.00
42105;BME280;68365;51.472;5.712;2023-03-22T11:25:48;100490.13;;;15.61;100.00
42105;BME280;68365;51.472;5.712;2023-03-22T11:28:33;100498.41;;;15.65;100.00
42105;BME280;68365;51.472;5.712;2023-03-22T11:31:16;100504.81;;;15.62;100.00
42105;BME280;68365;51.472;5.712;2023-03-22T11:33:59;100496.97;;;15.62;100.00
42105;BME280;68365;51.472;5.712;2023-03-22T11:36:27;100497.56;;;15.64;100.00
42105;BME280;68365;51.472;5.712;2023-03-22T11:39:05;100498.78;;;15.68;100.00
42105;BME280;68365;51.472;5.712;2023-03-22T11:41:35;100497.56;;;15.64;100.00
42105;BME280;68365;51.472;5.712;2023-03-22T11:44:05;100490.94;;;15.62;100.00
42105;BME280;68365;51.472;5.712;2023-03-22T11:46:34;100503.41;;;15.66;100.00
42105;BME280;68365;51.472;5.712;2023-03-22T11:49:05;100500.59;;;15.61;100.00
42105;BME280;68365;51.472;5.712;2023-03-22T11:51:36;100505.63;;;15.63;100.00
42105;BME280;68365;51.472;5.712;2023-03-22T11:54:32;100508.25;;;15.63;100.00
42105;BME280;68365;51.472;5.712;2023-03-22T11:57:04;100505.22;;;15.59;100.00
42105;BME280;68365;51.472;5.712;2023-03-22T12:00:04;100502.19;;;15.62;100.00
42105;BME280;68365;51.472;5.712;2023-03-22T12:02:45;100502.00;;;15.57;100.00
42105;BME280;68365;51.472;5.712;2023-03-22T12:05:26;100489.91;;;15.56;100.00
42105;BME280;68365;51.472;5.712;2023-03-22T12:10:46;100512.06;;;15.60;100.00
42105;BME280;68365;51.472;5.712;2023-03-22T12:13:31;100498.97;;;15.60;100.00
42105;BME280;68365;51.472;5.712;2023-03-22T12:16:05;100502.19;;;15.62;100.00
42105;BME280;68365;51.472;5.712;2023-03-22T12:19:16;100490.56;;;15.65;100.00
42105;BME280;68365;51.472;5.712;2023-03-22T12:21:44;100478.66;;;15.62;100.00
42105;BME280;68365;51.472;5.712;2023-03-22T12:24:29;100486.31;;;15.64;100.00
42105;BME280;68365;51.472;5.712;2023-03-22T12:32:33;100469.22;;;15.68;100.00
42105;BME280;68365;51.472;5.712;2023-03-22T12:34:59;100466.59;;;15.61;100.00
42105;BME280;68365;51.472;5.712;2023-03-22T12:37:33;100477.06;;;15.61;100.00
42105;BME280;68365;51.472;5.712;2023-03-22T12:40:23;100466.78;;;15.66;100.00
42105;BME280;68365;51.472;5.712;2023-03-22T12:43:16;100455.09;;;15.62;100.00
42105;BME280;68365;51.472;5.712;2023-03-22T12:45:52;100453.09;;;15.58;100.00
42105;BME280;68365;51.472;5.712;2023-03-22T12:51:26;100454.31;;;15.62;100.00
42105;BME280;68365;51.472;5.712;2023-03-22T12:53:55;100456.13;;;15.61;100.00
42105;BME280;68365;51.472;5.712;2023-03-22T12:56:37;100455.50;;;15.59;100.00
42105;BME280;68365;51.472;5.712;2023-03-22T12:59:09;100442.22;;;15.54;100.00
42105;BME280;68365;51.472;5.712;2023-03-22T13:01:57;100459.53;;;15.62;100.00
42105;BME280;68365;51.472;5.712;2023-03-22T13:06:57;100466.16;;;15.58;100.00
42105;BME280;68365;51.472;5.712;2023-03-22T13:09:51;100471.63;;;15.63;100.00
42105;BME280;68365;51.472;5.712;2023-03-22T13:12:35;100468.19;;;15.62;100.00
42105;BME280;68365;51.472;5.712;2023-03-22T13:15:32;100458.75;;;15.61;100.00
42105;BME280;68365;51.472;5.712;2023-03-22T13:17:59;100464.16;;;15.60;100.00
42105;BME280;68365;51.472;5.712;2023-03-22T13:20:28;100469.81;;;15.63;100.00
42105;BME280;68365;51.472;5.712;2023-03-22T13:23:02;100456.72;;;15.57;100.00
42105;BME280;68365;51.472;5.712;2023-03-22T13:25:37;100454.91;;;15.57;100.00
42105;BME280;68365;51.472;5.712;2023-03-22T13:28:25;100452.28;;;15.57;100.00
42105;BME280;68365;51.472;5.712;2023-03-22T13:31:16;100455.91;;;15.56;100.00
42105;BME280;68365;51.472;5.712;2023-03-22T13:34:37;100452.09;;;15.65;100.00
42105;BME280;68365;51.472;5.712;2023-03-22T13:37:16;100438.59;;;15.55;100.00
42105;BME280;68365;51.472;5.712;2023-03-22T13:40:41;100437.59;;;15.56;100.00
42105;BME280;68365;51.472;5.712;2023-03-22T13:46:13;100454.50;;;15.60;100.00
42105;BME280;68365;51.472;5.712;2023-03-22T13:49:40;100455.50;;;15.66;100.00
42105;BME280;68365;51.472;5.712;2023-03-22T13:52:18;100440.41;;;15.61;100.00
42105;BME280;68365;51.472;5.712;2023-03-22T13:54:48;100446.06;;;15.65;100.00
42105;BME280;68365;51.472;5.712;2023-03-22T13:58:00;100449.50;;;15.72;100.00
42105;BME280;68365;51.472;5.712;2023-03-22T14:03:15;100460.56;;;15.67;100.00
42105;BME280;68365;51.472;5.712;2023-03-22T14:05:45;100434.97;;;15.56;100.00
42105;BME280;68365;51.472;5.712;2023-03-22T14:08:23;100441.22;;;15.55;100.00
42105;BME280;68365;51.472;5.712;2023-03-22T14:11:00;100440.81;;;15.58;100.00
42105;BME280;68365;51.472;5.712;2023-03-22T14:13:46;100446.03;;;15.58;100.00